createdAt,value
2023-05-20T00:00:06.876Z,1.40
2023-05-20T00:02:38.507Z,1.27
2023-05-20T00:05:08.153Z,1.40
2023-05-20T00:07:38.262Z,1.48
2023-05-20T00:10:07.842Z,1.55
2023-05-20T00:12:36.484Z,1.45
2023-05-20T00:15:06.067Z,1.38
2023-05-20T00:17:34.811Z,1.58
2023-05-20T00:20:05.321Z,1.40
2023-05-20T00:22:33.979Z,1.60
2023-05-20T00:25:07.304Z,1.40
2023-05-20T00:27:35.867Z,1.40
2023-05-20T00:30:04.842Z,1.65
2023-05-20T00:32:34.693Z,1.60
2023-05-20T00:35:05.892Z,1.67
2023-05-20T00:37:34.572Z,1.45
2023-05-20T00:40:05.027Z,1.60
2023-05-20T00:42:33.604Z,1.63
2023-05-20T00:45:02.261Z,1.70
2023-05-20T00:47:34.001Z,1.55
2023-05-20T00:50:03.820Z,1.73
2023-05-20T00:52:33.391Z,1.50
2023-05-20T00:55:02.175Z,1.60
2023-05-20T00:57:32.262Z,1.60
2023-05-20T01:00:01.044Z,1.60
2023-05-20T01:02:30.292Z,1.80
2023-05-20T01:04:59.230Z,1.80
2023-05-20T01:07:27.824Z,2.03
2023-05-20T01:09:56.560Z,2.00
2023-05-20T01:12:29.738Z,1.80
2023-05-20T01:17:38.079Z,1.73
2023-05-20T01:20:10.921Z,1.70
2023-05-20T01:22:47.925Z,1.80
2023-05-20T01:25:16.656Z,1.60
2023-05-20T01:27:49.071Z,1.70
2023-05-20T01:30:18.509Z,1.75
2023-05-20T01:32:51.570Z,2.08
2023-05-20T01:35:20.836Z,1.65
2023-05-20T01:37:54.009Z,1.65
2023-05-20T01:40:24.763Z,1.63
2023-05-20T01:42:55.853Z,1.80
2023-05-20T01:45:25.321Z,1.80
2023-05-20T01:47:54.072Z,1.70
2023-05-20T01:50:22.927Z,1.80
2023-05-20T01:52:52.883Z,1.80
2023-05-20T01:55:21.537Z,1.80
2023-05-20T01:57:50.128Z,1.80
2023-05-20T02:00:18.809Z,1.95
2023-05-20T02:02:47.454Z,1.88
2023-05-20T02:05:16.210Z,2.00
2023-05-20T02:07:45.492Z,1.90
2023-05-20T02:10:16.470Z,2.38
2023-05-20T02:12:46.316Z,2.15
2023-05-20T02:15:14.865Z,2.00
2023-05-20T02:17:44.575Z,2.13
2023-05-20T02:20:14.027Z,2.20
2023-05-20T02:22:42.670Z,2.40
2023-05-20T02:25:12.722Z,2.38
2023-05-20T02:27:42.639Z,2.30
2023-05-20T02:30:11.566Z,2.05
2023-05-20T02:32:40.214Z,1.90
2023-05-20T02:35:09.400Z,1.90
2023-05-20T02:37:39.549Z,2.20
2023-05-20T02:40:10.444Z,1.85
2023-05-20T02:42:42.110Z,2.38
2023-05-20T02:45:11.799Z,2.28
2023-05-20T02:47:41.174Z,2.03
2023-05-20T02:50:10.094Z,2.00
2023-05-20T02:52:39.949Z,2.22
2023-05-20T02:55:09.375Z,1.95
2023-05-20T02:57:39.276Z,1.88
2023-05-20T03:00:13.133Z,2.00
2023-05-20T03:02:41.649Z,1.85
2023-05-20T03:05:13.588Z,2.15
2023-05-20T03:07:42.225Z,1.98
2023-05-20T03:10:11.637Z,2.13
2023-05-20T03:12:41.456Z,1.90
2023-05-20T03:15:13.430Z,1.90
2023-05-20T03:17:42.048Z,2.05
2023-05-20T03:20:12.847Z,2.10
2023-05-20T03:22:42.670Z,2.00
2023-05-20T03:25:11.763Z,2.60
2023-05-20T03:27:40.390Z,2.10
2023-05-20T03:30:10.445Z,2.45
2023-05-20T03:32:40.587Z,2.33
2023-05-20T03:35:10.035Z,2.10
2023-05-20T03:37:40.045Z,1.98
2023-05-20T03:40:10.486Z,2.33
2023-05-20T03:42:39.871Z,2.08
2023-05-20T03:45:09.797Z,2.35
2023-05-20T03:47:46.945Z,2.17
2023-05-20T03:50:15.631Z,1.88
2023-05-20T03:52:44.237Z,2.20
2023-05-20T03:55:13.752Z,1.77
2023-05-20T03:57:45.141Z,2.03
2023-05-20T04:00:14.618Z,2.20
2023-05-20T04:02:47.379Z,1.98
2023-05-20T04:05:19.785Z,2.40
2023-05-20T04:07:49.714Z,1.80
2023-05-20T04:10:21.564Z,1.88
2023-05-20T04:12:50.673Z,1.83
2023-05-20T04:15:19.745Z,1.88
2023-05-20T04:17:57.021Z,1.80
2023-05-20T04:20:27.220Z,1.85
2023-05-20T04:22:59.378Z,1.77
2023-05-20T04:25:27.943Z,1.70
2023-05-20T04:27:57.916Z,2.03
2023-05-20T04:30:26.656Z,2.00
2023-05-20T04:32:57.002Z,2.22
2023-05-20T04:35:26.033Z,1.95
2023-05-20T04:37:55.555Z,1.90
2023-05-20T04:40:24.902Z,2.17
2023-05-20T04:42:54.584Z,1.80
2023-05-20T04:45:23.434Z,2.05
2023-05-20T04:47:53.485Z,1.88
2023-05-20T04:50:23.660Z,2.05
2023-05-20T04:52:52.297Z,1.83
2023-05-20T04:55:21.687Z,1.95
2023-05-20T04:57:50.363Z,1.90
2023-05-20T05:00:19.367Z,2.05
2023-05-20T05:02:48.712Z,2.10
2023-05-20T05:05:18.679Z,2.15
2023-05-20T05:07:49.028Z,2.15
2023-05-20T05:10:17.751Z,2.38
2023-05-20T05:12:46.318Z,2.10
2023-05-20T05:15:15.235Z,2.30
2023-05-20T05:17:45.426Z,2.47
2023-05-20T05:20:14.053Z,2.20
2023-05-20T05:22:42.789Z,2.05
2023-05-20T05:25:13.848Z,1.92
2023-05-20T05:27:44.651Z,2.20
2023-05-20T05:30:13.426Z,2.10
2023-05-20T05:32:42.250Z,2.00
2023-05-20T05:35:11.396Z,2.13
2023-05-20T05:37:40.077Z,1.80
2023-05-20T05:40:10.118Z,1.90
2023-05-20T05:42:40.302Z,1.98
2023-05-20T05:45:10.889Z,1.83
2023-05-20T05:47:39.426Z,2.08
2023-05-20T05:50:08.487Z,2.20
2023-05-20T05:52:37.433Z,2.20
2023-05-20T05:55:10.929Z,2.50
2023-05-20T05:57:41.244Z,2.30
2023-05-20T06:00:12.078Z,2.38
2023-05-20T06:02:49.823Z,2.47
2023-05-20T06:05:37.313Z,2.38
2023-05-20T06:08:08.885Z,2.50
2023-05-20T06:10:38.232Z,2.33
2023-05-20T06:13:08.310Z,2.30
2023-05-20T06:15:37.625Z,2.40
2023-05-20T06:18:06.314Z,2.33
2023-05-20T06:20:35.333Z,2.20
2023-05-20T06:23:05.158Z,2.80
2023-05-20T06:25:53.955Z,2.53
2023-05-20T06:28:23.867Z,2.45
2023-05-20T06:30:53.033Z,2.40
2023-05-20T06:33:22.219Z,2.10
2023-05-20T06:35:51.623Z,2.20
2023-05-20T06:38:20.341Z,2.50
2023-05-20T06:40:50.269Z,1.83
2023-05-20T06:43:19.954Z,2.65
2023-05-20T06:46:00.356Z,2.30
2023-05-20T06:48:32.042Z,2.25
2023-05-20T06:51:01.874Z,2.75
2023-05-20T06:53:30.502Z,2.72
2023-05-20T06:55:59.220Z,13.57
2023-05-20T06:58:28.226Z,36.45
2023-05-20T07:00:58.552Z,13.43
2023-05-20T07:03:29.379Z,8.85
2023-05-20T07:05:58.570Z,11.35
2023-05-20T07:08:27.142Z,9.45
2023-05-20T07:10:56.994Z,7.82
2023-05-20T07:13:26.461Z,5.78
2023-05-20T07:15:57.743Z,4.88
2023-05-20T07:21:26.936Z,3.35
2023-05-20T07:24:02.932Z,3.60
2023-05-20T07:26:33.774Z,3.03
2023-05-20T07:29:02.443Z,2.78
2023-05-20T07:31:31.726Z,3.00
2023-05-20T07:34:00.993Z,2.70
2023-05-20T07:36:31.114Z,2.85
2023-05-20T07:39:07.871Z,3.20
2023-05-20T07:41:41.681Z,2.50
2023-05-20T07:44:11.375Z,2.70
2023-05-20T07:46:42.784Z,2.42
2023-05-20T07:49:12.656Z,2.47
2023-05-20T07:51:43.102Z,2.35
2023-05-20T07:54:12.938Z,2.80
2023-05-20T07:56:44.147Z,2.55
2023-05-20T07:59:13.649Z,2.78
2023-05-20T08:01:45.939Z,2.85
2023-05-20T08:04:19.980Z,3.30
2023-05-20T08:06:50.725Z,2.75
2023-05-20T08:09:29.543Z,3.10
2023-05-20T08:11:58.840Z,2.92
2023-05-20T08:14:27.945Z,2.72
2023-05-20T08:16:56.623Z,3.35
2023-05-20T08:19:25.354Z,2.97
2023-05-20T08:21:55.556Z,3.10
2023-05-20T08:24:24.844Z,3.42
2023-05-20T08:26:53.370Z,3.25
2023-05-20T08:29:24.564Z,3.45
2023-05-20T08:31:53.687Z,3.95
2023-05-20T08:34:22.854Z,3.20
2023-05-20T08:36:51.672Z,3.80
2023-05-20T08:39:21.937Z,3.00
2023-05-20T08:41:50.573Z,3.30
2023-05-20T08:44:20.813Z,2.97
2023-05-20T08:46:50.828Z,3.22
2023-05-20T08:49:21.254Z,3.03
2023-05-20T08:51:49.995Z,3.70
2023-05-20T08:54:20.996Z,3.10
2023-05-20T08:56:51.129Z,3.35
2023-05-20T08:59:20.102Z,4.32
2023-05-20T09:01:48.694Z,4.30
2023-05-20T09:04:17.690Z,3.67
2023-05-20T09:06:47.882Z,3.92
2023-05-20T09:09:17.341Z,3.80
2023-05-20T09:11:51.015Z,3.08
2023-05-20T09:14:19.730Z,3.53
2023-05-20T09:16:49.676Z,5.07
2023-05-20T09:19:18.871Z,3.67
2023-05-20T09:21:48.471Z,3.38
2023-05-20T09:24:16.990Z,3.47
2023-05-20T09:26:45.540Z,3.55
2023-05-20T09:29:15.689Z,3.30
2023-05-20T09:31:44.954Z,3.30
2023-05-20T09:34:13.862Z,3.72
2023-05-20T09:36:44.431Z,3.35
2023-05-20T09:39:15.913Z,3.70
2023-05-20T09:41:58.342Z,3.70
2023-05-20T09:44:29.020Z,3.40
2023-05-20T09:46:59.249Z,3.80
2023-05-20T09:49:30.020Z,3.60
2023-05-20T09:52:00.620Z,3.38
2023-05-20T09:54:30.689Z,3.67
2023-05-20T09:57:01.244Z,4.00
2023-05-20T09:59:32.743Z,3.67
2023-05-20T10:02:01.894Z,3.20
2023-05-20T10:04:32.742Z,3.35
2023-05-20T10:07:42.133Z,3.60
2023-05-20T10:10:24.950Z,3.55
2023-05-20T10:13:01.404Z,3.58
2023-05-20T10:15:41.339Z,3.58
2023-05-20T10:18:17.397Z,3.90
2023-05-20T10:20:47.968Z,3.40
2023-05-20T10:23:23.498Z,3.70
2023-05-20T10:25:53.294Z,3.53
2023-05-20T10:28:41.366Z,3.78
2023-05-20T10:31:18.917Z,3.58
2023-05-20T10:33:48.015Z,3.10
2023-05-20T10:36:27.947Z,3.42
2023-05-20T10:38:57.563Z,3.25
2023-05-20T10:41:27.807Z,3.35
2023-05-20T10:44:03.402Z,3.50
2023-05-20T10:46:46.275Z,3.58
2023-05-20T10:49:26.832Z,3.60
2023-05-20T10:51:56.656Z,3.22
2023-05-20T10:54:25.418Z,3.33
2023-05-20T10:56:55.132Z,3.70
2023-05-20T10:59:24.316Z,3.33
2023-05-20T11:01:55.725Z,4.25
2023-05-20T11:04:24.772Z,3.50
2023-05-20T11:06:56.012Z,3.90
2023-05-20T11:09:24.788Z,3.25
2023-05-20T11:11:55.060Z,3.25
2023-05-20T11:14:23.638Z,3.70
2023-05-20T11:16:59.119Z,3.60
2023-05-20T11:19:28.578Z,3.55
2023-05-20T11:21:57.305Z,3.60
2023-05-20T11:24:27.692Z,3.65
2023-05-20T11:26:57.580Z,4.00
2023-05-20T11:29:29.345Z,3.42
2023-05-20T11:32:01.416Z,3.72
2023-05-20T11:34:36.491Z,3.72
2023-05-20T11:37:08.860Z,4.20
2023-05-20T11:39:39.334Z,4.10
2023-05-20T11:42:08.095Z,4.03
2023-05-20T11:44:36.871Z,4.20
2023-05-20T11:47:06.883Z,3.70
2023-05-20T11:49:41.062Z,3.95
2023-05-20T11:52:11.476Z,4.00
2023-05-20T11:54:40.038Z,4.40
2023-05-20T11:57:08.828Z,3.70
2023-05-20T11:59:37.806Z,4.15
2023-05-20T12:02:08.675Z,4.10
2023-05-20T12:04:37.659Z,4.10
2023-05-20T12:07:09.524Z,4.10
2023-05-20T12:09:39.152Z,3.97
2023-05-20T12:12:09.131Z,3.55
2023-05-20T12:14:38.214Z,4.28
2023-05-20T12:17:08.914Z,3.80
2023-05-20T12:19:39.048Z,4.18
2023-05-20T12:22:10.997Z,4.28
2023-05-20T12:24:40.426Z,3.53
2023-05-20T12:27:10.613Z,4.40
2023-05-20T12:29:39.836Z,3.67
2023-05-20T12:32:10.791Z,3.95
2023-05-20T12:34:42.749Z,3.63
2023-05-20T12:37:12.330Z,4.10
2023-05-20T12:39:41.502Z,3.38
2023-05-20T12:42:10.805Z,3.25
2023-05-20T12:44:40.002Z,3.40
2023-05-20T12:47:11.078Z,3.15
2023-05-20T12:49:40.076Z,3.15
2023-05-20T12:52:18.908Z,3.22
2023-05-20T12:54:51.628Z,2.85
2023-05-20T12:57:20.611Z,3.00
2023-05-20T12:59:50.301Z,3.10
2023-05-20T13:02:21.263Z,3.05
2023-05-20T13:04:50.148Z,3.20
2023-05-20T13:07:19.963Z,3.00
2023-05-20T13:09:49.467Z,3.00
2023-05-20T13:12:18.288Z,2.72
2023-05-20T13:14:47.139Z,2.80
2023-05-20T13:17:16.620Z,3.10
2023-05-20T13:19:47.495Z,2.97
2023-05-20T13:22:16.842Z,3.30
2023-05-20T13:24:45.842Z,3.00
2023-05-20T13:27:15.092Z,2.60
2023-05-20T13:29:45.024Z,2.92
2023-05-20T13:32:14.225Z,2.75
2023-05-20T13:34:47.764Z,2.42
2023-05-20T13:37:16.678Z,2.70
2023-05-20T13:39:46.795Z,2.50
2023-05-20T13:42:18.609Z,2.70
2023-05-20T13:44:47.864Z,2.70
2023-05-20T13:47:17.340Z,2.65
2023-05-20T13:49:48.605Z,2.85
2023-05-20T13:52:18.117Z,2.88
2023-05-20T13:54:48.810Z,2.90
2023-05-20T13:57:17.800Z,3.08
2023-05-20T13:59:47.476Z,3.03
2023-05-20T14:02:16.638Z,2.70
2023-05-20T14:04:47.324Z,3.17
2023-05-20T14:07:17.418Z,2.83
2023-05-20T14:09:46.084Z,3.00
2023-05-20T14:12:14.654Z,2.97
2023-05-20T14:14:43.225Z,3.13
2023-05-20T14:17:11.912Z,2.80
2023-05-20T14:19:40.651Z,2.70
2023-05-20T14:22:09.229Z,2.90
2023-05-20T14:24:39.106Z,2.78
2023-05-20T14:27:07.964Z,2.92
2023-05-20T14:29:36.489Z,2.58
2023-05-20T14:32:05.680Z,2.40
2023-05-20T14:34:34.376Z,2.70
2023-05-20T14:37:07.930Z,2.45
2023-05-20T14:39:36.971Z,2.80
2023-05-20T14:42:07.730Z,2.42
2023-05-20T14:44:36.393Z,2.40
2023-05-20T14:47:05.683Z,2.65
2023-05-20T14:49:34.265Z,2.70
2023-05-20T14:52:02.801Z,3.03
2023-05-20T14:54:31.342Z,2.60
2023-05-20T14:56:59.987Z,2.55
2023-05-20T14:59:30.094Z,2.50
2023-05-20T15:01:58.788Z,2.58
2023-05-20T15:04:27.585Z,2.60
2023-05-20T15:06:56.204Z,2.60
2023-05-20T15:09:24.881Z,2.80
2023-05-20T15:11:54.008Z,2.45
2023-05-20T15:14:22.698Z,2.70
2023-05-20T15:16:52.695Z,2.40
2023-05-20T15:19:21.301Z,2.30
2023-05-20T15:21:51.741Z,2.38
2023-05-20T15:24:20.330Z,2.42
2023-05-20T15:26:50.069Z,2.33
2023-05-20T15:29:18.751Z,2.20
2023-05-20T15:31:48.432Z,2.50
2023-05-20T15:34:19.565Z,2.42
2023-05-20T15:36:48.117Z,2.50
2023-05-20T15:39:16.765Z,2.90
2023-05-20T15:41:47.927Z,2.60
2023-05-20T15:44:16.887Z,2.80
2023-05-20T15:46:46.454Z,2.42
2023-05-20T15:49:15.014Z,2.70
2023-05-20T15:51:52.249Z,2.80
2023-05-20T15:54:28.024Z,2.58
2023-05-20T15:56:56.693Z,2.83
2023-05-20T15:59:25.183Z,2.55
2023-05-20T16:01:53.921Z,2.60
2023-05-20T16:04:22.641Z,2.55
2023-05-20T16:06:52.799Z,2.80
2023-05-20T16:09:22.058Z,2.75
2023-05-20T16:11:50.665Z,2.95
2023-05-20T16:14:19.292Z,3.13
2023-05-20T16:16:48.083Z,2.63
2023-05-20T16:19:16.838Z,2.90
2023-05-20T16:21:46.124Z,2.58
2023-05-20T16:24:16.873Z,2.78
2023-05-20T16:26:45.617Z,2.60
2023-05-20T16:29:16.404Z,2.80
2023-05-20T16:31:46.840Z,3.00
2023-05-20T16:34:16.790Z,2.80
2023-05-20T16:36:46.491Z,3.20
2023-05-20T16:39:16.754Z,2.80
2023-05-20T16:41:45.610Z,2.95
2023-05-20T16:44:14.149Z,3.47
2023-05-20T16:46:42.770Z,2.97
2023-05-20T16:49:11.365Z,2.92
2023-05-20T16:51:39.817Z,3.03
2023-05-20T16:54:08.468Z,3.13
2023-05-20T16:56:38.393Z,2.90
2023-05-20T16:59:07.353Z,2.67
2023-05-20T17:01:36.896Z,2.65
2023-05-20T17:04:05.884Z,2.90
2023-05-20T17:06:34.599Z,2.60
2023-05-20T17:09:04.599Z,2.85
2023-05-20T17:11:33.436Z,2.78
2023-05-20T17:14:05.128Z,2.50
2023-05-20T17:16:34.258Z,2.67
2023-05-20T17:19:02.862Z,2.60
2023-05-20T17:21:31.636Z,2.78
2023-05-20T17:24:00.130Z,3.15
2023-05-20T17:26:28.780Z,2.80
2023-05-20T17:28:57.409Z,3.28
2023-05-20T17:31:27.371Z,2.70
2023-05-20T17:33:56.150Z,3.00
2023-05-20T17:36:25.210Z,2.58
2023-05-20T17:38:53.786Z,2.80
2023-05-20T17:41:23.125Z,2.70
2023-05-20T17:43:51.612Z,3.25
2023-05-20T17:46:20.209Z,2.88
2023-05-20T17:48:50.347Z,2.70
2023-05-20T17:51:18.908Z,2.92
2023-05-20T17:53:47.453Z,2.70
2023-05-20T17:56:16.372Z,2.83
2023-05-20T17:58:45.432Z,3.08
2023-05-20T18:01:15.021Z,2.92
2023-05-20T18:03:43.733Z,2.85
2023-05-20T18:06:13.780Z,2.67
2023-05-20T18:08:42.438Z,2.75
2023-05-20T18:11:11.057Z,2.60
2023-05-20T18:13:39.587Z,3.10
2023-05-20T18:16:08.570Z,2.97
2023-05-20T18:18:37.117Z,3.00
2023-05-20T18:21:07.749Z,2.90
2023-05-20T18:23:37.851Z,3.20
2023-05-20T18:26:09.159Z,2.95
2023-05-20T18:28:37.683Z,3.05
2023-05-20T18:31:06.276Z,3.20
2023-05-20T18:33:37.013Z,3.03
2023-05-20T18:36:06.935Z,3.00
2023-05-20T18:38:35.603Z,3.08
2023-05-20T18:41:06.291Z,2.97
2023-05-20T18:43:34.866Z,2.95
2023-05-20T18:46:03.550Z,3.42
2023-05-20T18:48:32.139Z,3.15
2023-05-20T18:51:00.740Z,3.30
2023-05-20T18:53:29.250Z,3.20
2023-05-20T18:56:02.726Z,3.28
2023-05-20T18:58:32.712Z,3.20
2023-05-20T19:01:01.432Z,3.20
2023-05-20T19:03:30.285Z,3.22
2023-05-20T19:05:58.913Z,3.28
2023-05-20T19:08:27.562Z,3.33
2023-05-20T19:10:56.077Z,3.50
2023-05-20T19:13:24.999Z,3.22
2023-05-20T19:15:55.067Z,3.70
2023-05-20T19:18:23.596Z,3.15
2023-05-20T19:20:53.127Z,3.47
2023-05-20T19:23:21.734Z,3.40
2023-05-20T19:25:50.255Z,3.38
2023-05-20T19:28:19.235Z,3.40
2023-05-20T19:30:47.835Z,3.67
2023-05-20T19:33:17.799Z,3.83
2023-05-20T19:35:46.289Z,3.72
2023-05-20T19:38:14.791Z,3.50
2023-05-20T19:40:44.466Z,3.40
2023-05-20T19:43:13.366Z,3.50
2023-05-20T19:45:41.938Z,3.50
2023-05-20T19:48:10.805Z,3.65
2023-05-20T19:50:41.760Z,3.58
2023-05-20T19:53:10.855Z,3.25
2023-05-20T19:55:40.043Z,3.55
2023-05-20T19:58:08.789Z,3.72
2023-05-20T20:00:38.406Z,3.75
2023-05-20T20:03:08.499Z,4.20
2023-05-20T20:05:38.261Z,3.85
2023-05-20T20:08:08.477Z,4.18
2023-05-20T20:10:37.741Z,4.38
2023-05-20T20:13:06.779Z,3.85
2023-05-20T20:15:36.217Z,3.70
2023-05-20T20:18:05.149Z,3.97
2023-05-20T20:20:39.908Z,4.18
2023-05-20T20:23:10.786Z,3.75
2023-05-20T20:25:41.180Z,3.78
2023-05-20T20:28:11.518Z,4.10
2023-05-20T20:30:40.084Z,3.90
2023-05-20T20:33:09.718Z,3.83
2023-05-20T20:35:38.726Z,3.60
2023-05-20T20:38:09.836Z,3.92
2023-05-20T20:40:41.881Z,3.92
2023-05-20T20:43:20.477Z,3.88
2023-05-20T20:45:53.028Z,4.18
2023-05-20T20:48:26.827Z,4.70
2023-05-20T20:50:56.683Z,4.22
2023-05-20T20:53:25.446Z,4.10
2023-05-20T20:56:09.071Z,4.20
2023-05-20T20:58:37.835Z,4.10
2023-05-20T21:01:20.802Z,4.90
2023-05-20T21:03:49.596Z,4.47
2023-05-20T21:06:18.317Z,4.30
2023-05-20T21:08:48.135Z,4.63
2023-05-20T21:11:18.140Z,3.95
2023-05-20T21:13:47.349Z,4.15
2023-05-20T21:16:16.207Z,4.00
2023-05-20T21:18:44.985Z,4.32
2023-05-20T21:21:14.927Z,4.57
2023-05-20T21:23:43.594Z,4.80
2023-05-20T21:26:12.381Z,4.70
2023-05-20T21:28:42.519Z,4.70
2023-05-20T21:31:11.437Z,4.90
2023-05-20T21:33:40.117Z,4.70
2023-05-20T21:36:09.122Z,4.15
2023-05-20T21:38:37.788Z,4.55
2023-05-20T21:41:06.451Z,4.55
2023-05-20T21:43:36.123Z,4.05
2023-05-20T21:46:08.063Z,4.47
2023-05-20T21:48:36.916Z,4.60
2023-05-20T21:51:05.639Z,4.80
2023-05-20T21:53:34.406Z,4.65
2023-05-20T21:56:03.133Z,4.65
2023-05-20T21:58:31.898Z,4.47
2023-05-20T22:01:00.504Z,4.40
2023-05-20T22:03:32.945Z,4.72
2023-05-20T22:06:03.323Z,4.53
2023-05-20T22:08:33.767Z,4.43
2023-05-20T22:11:05.508Z,4.47
2023-05-20T22:13:35.251Z,4.15
2023-05-20T22:16:04.933Z,4.25
2023-05-20T22:18:36.119Z,4.55
2023-05-20T22:21:04.999Z,4.47
2023-05-20T22:23:33.555Z,4.95
2023-05-20T22:26:02.867Z,4.82
2023-05-20T22:28:31.442Z,4.65
2023-05-20T22:31:00.069Z,5.00
2023-05-20T22:33:28.616Z,5.18
2023-05-20T22:35:59.547Z,5.40
2023-05-20T22:38:29.773Z,5.55
2023-05-20T22:40:58.442Z,5.63
2023-05-20T22:43:26.969Z,5.22
2023-05-20T22:45:55.621Z,5.00
2023-05-20T22:48:24.206Z,4.80
2023-05-20T22:50:54.119Z,4.68
2023-05-20T22:53:24.173Z,4.68
2023-05-20T22:55:52.679Z,4.88
2023-05-20T22:58:21.208Z,4.45
2023-05-20T23:00:49.805Z,4.72
2023-05-20T23:03:18.437Z,4.70
2023-05-20T23:05:47.217Z,5.07
2023-05-20T23:08:16.002Z,5.13
2023-05-20T23:10:45.965Z,5.05
2023-05-20T23:13:14.628Z,4.28
2023-05-20T23:15:47.603Z,4.63
2023-05-20T23:18:16.697Z,4.82
2023-05-20T23:20:45.582Z,4.90
2023-05-20T23:23:14.272Z,5.20
2023-05-20T23:25:45.030Z,5.38
2023-05-20T23:28:15.895Z,4.70
2023-05-20T23:30:44.409Z,4.97
2023-05-20T23:33:13.165Z,5.78
2023-05-20T23:35:44.119Z,5.55
2023-05-20T23:38:12.650Z,5.03
2023-05-20T23:40:41.242Z,4.82
2023-05-20T23:43:09.938Z,4.68
2023-05-20T23:45:39.956Z,5.50
2023-05-20T23:48:11.213Z,5.43
2023-05-20T23:50:40.272Z,4.97
2023-05-20T23:53:09.003Z,4.70
2023-05-20T23:55:38.217Z,4.38
2023-05-20T23:58:07.087Z,4.28
